createdAt,value
2022-08-26T03:42:58.576Z,100.00
2022-08-26T03:46:11.691Z,100.00
2022-08-26T03:49:14.259Z,100.00
2022-08-26T03:52:18.079Z,100.00
2022-08-26T03:55:23.980Z,100.00
2022-08-26T03:58:27.066Z,100.00
2022-08-26T04:01:30.790Z,100.00
2022-08-26T04:04:35.015Z,100.00
2022-08-26T04:07:37.551Z,100.00
2022-08-26T04:10:40.570Z,100.00
2022-08-26T04:13:43.129Z,100.00
2022-08-26T04:16:47.101Z,100.00
2022-08-26T04:19:49.564Z,100.00
2022-08-26T04:22:52.399Z,100.00
2022-08-26T04:25:54.935Z,100.00
2022-08-26T04:28:57.735Z,100.00
2022-08-26T04:32:03.040Z,100.00
2022-08-26T04:35:06.444Z,100.00
2022-08-26T04:38:09.203Z,100.00
2022-08-26T04:41:15.577Z,100.00
2022-08-26T04:44:19.576Z,100.00
2022-08-26T04:47:22.391Z,100.00
2022-08-26T04:50:25.844Z,100.00
2022-08-26T04:53:29.575Z,100.00
2022-08-26T04:56:37.615Z,100.00
2022-08-26T04:59:40.531Z,100.00
2022-08-26T05:02:43.230Z,100.00
2022-08-26T05:05:46.650Z,100.00
2022-08-26T05:08:49.110Z,100.00
2022-08-26T05:11:52.441Z,100.00
2022-08-26T05:14:55.196Z,100.00
2022-08-26T05:17:59.226Z,100.00
2022-08-26T05:21:04.707Z,100.00
2022-08-26T05:24:11.835Z,100.00
2022-08-26T05:27:14.862Z,100.00
2022-08-26T05:30:18.310Z,100.00
2022-08-26T05:33:22.091Z,100.00
2022-08-26T05:36:28.100Z,100.00
2022-08-26T05:39:33.043Z,100.00
2022-08-26T05:42:35.992Z,100.00
2022-08-26T05:45:46.097Z,100.00
2022-08-26T05:48:49.390Z,100.00
2022-08-26T05:51:53.412Z,100.00
2022-08-26T05:54:56.074Z,100.00
2022-08-26T05:57:58.537Z,100.00
2022-08-26T06:01:16.458Z,100.00
2022-08-26T06:04:19.998Z,99.06
2022-08-26T06:07:42.731Z,97.76
2022-08-26T06:10:52.579Z,96.33
2022-08-26T06:14:03.136Z,94.87
2022-08-26T06:17:06.965Z,94.56
2022-08-26T06:20:12.200Z,91.16
2022-08-26T06:23:36.441Z,90.34
2022-08-26T06:26:39.991Z,87.30
2022-08-26T06:29:45.667Z,85.98
2022-08-26T06:32:48.888Z,84.83
2022-08-26T06:35:53.645Z,83.36
2022-08-26T06:39:02.328Z,81.01
2022-08-26T06:42:06.107Z,77.14
2022-08-26T06:45:09.811Z,76.75
2022-08-26T06:48:16.083Z,74.13
2022-08-26T06:51:23.797Z,74.51
2022-08-26T06:54:28.437Z,72.94
2022-08-26T06:57:32.940Z,69.44
2022-08-26T07:00:39.316Z,66.45
2022-08-26T07:03:44.373Z,66.12
2022-08-26T07:06:52.951Z,65.62
2022-08-26T07:09:56.151Z,64.49
2022-08-26T07:13:00.821Z,60.94
2022-08-26T07:16:08.662Z,60.78
2022-08-26T07:19:12.427Z,61.84
2022-08-26T07:22:15.368Z,60.35
2022-08-26T07:25:19.470Z,58.24
2022-08-26T07:28:23.607Z,56.14
2022-08-26T07:31:34.768Z,57.00
2022-08-26T07:34:42.466Z,54.62
2022-08-26T07:37:45.370Z,57.14
2022-08-26T07:40:47.979Z,56.04
2022-08-26T07:43:52.439Z,56.47
2022-08-26T07:46:55.880Z,55.71
2022-08-26T07:49:59.767Z,55.44
2022-08-26T07:53:03.767Z,55.69
2022-08-26T07:56:07.500Z,54.75
2022-08-26T07:59:14.095Z,55.35
2022-08-26T08:02:18.099Z,53.79
2022-08-26T08:05:22.657Z,53.49
2022-08-26T08:08:31.064Z,53.05
2022-08-26T08:11:34.415Z,52.94
2022-08-26T08:14:37.611Z,51.04
2022-08-26T08:17:43.366Z,48.64
2022-08-26T08:20:59.248Z,51.10
2022-08-26T08:24:08.166Z,48.69
2022-08-26T08:27:10.775Z,46.75
2022-08-26T08:30:15.829Z,45.55
2022-08-26T08:33:26.120Z,46.34
2022-08-26T08:36:33.654Z,48.06
2022-08-26T08:39:38.920Z,46.14
2022-08-26T08:43:10.606Z,45.36
2022-08-26T08:46:16.772Z,46.12
2022-08-26T08:49:25.918Z,45.43
2022-08-26T08:52:32.353Z,44.81
2022-08-26T08:56:13.825Z,45.29
2022-08-26T08:59:24.230Z,43.67
2022-08-26T09:02:37.097Z,43.74
2022-08-26T09:05:48.549Z,41.99
2022-08-26T09:08:52.183Z,42.88
2022-08-26T09:11:56.375Z,43.79
2022-08-26T09:15:14.966Z,41.84
2022-08-26T09:18:30.193Z,38.81
2022-08-26T09:21:33.486Z,40.82
2022-08-26T09:24:42.153Z,40.79
2022-08-26T09:27:53.541Z,41.22
2022-08-26T09:31:19.426Z,40.66
2022-08-26T09:34:27.825Z,39.91
2022-08-26T09:37:33.406Z,41.10
2022-08-26T09:40:36.684Z,41.50
2022-08-26T09:43:39.199Z,41.03
2022-08-26T09:46:52.274Z,39.68
2022-08-26T09:50:28.927Z,41.08
2022-08-26T09:53:37.085Z,37.87
2022-08-26T09:56:40.084Z,40.66
2022-08-26T09:59:43.810Z,40.41
2022-08-26T10:02:47.533Z,40.67
2022-08-26T10:06:17.424Z,40.64
2022-08-26T10:09:20.711Z,38.95
2022-08-26T10:12:23.596Z,40.77
2022-08-26T10:15:38.396Z,40.83
2022-08-26T10:18:46.422Z,39.10
2022-08-26T10:22:03.528Z,40.75
2022-08-26T10:25:12.692Z,39.86
2022-08-26T10:28:26.908Z,39.26
2022-08-26T10:31:40.166Z,39.50
2022-08-26T10:34:43.932Z,39.99
2022-08-26T10:37:56.490Z,38.94
2022-08-26T10:41:13.731Z,39.30
2022-08-26T10:44:20.976Z,37.96
2022-08-26T10:47:35.251Z,37.53
2022-08-26T10:50:47.594Z,35.25
2022-08-26T10:54:11.904Z,37.93
2022-08-26T10:57:47.208Z,37.52
2022-08-26T11:04:38.361Z,37.39
2022-08-26T11:07:46.294Z,35.86
2022-08-26T11:10:52.095Z,37.04
2022-08-26T11:14:01.259Z,36.75
2022-08-26T11:17:04.836Z,34.93
2022-08-26T11:20:29.187Z,37.06
2022-08-26T11:23:31.901Z,37.45
2022-08-26T11:26:55.758Z,36.24
2022-08-26T11:30:04.950Z,36.36
2022-08-26T11:33:08.494Z,37.59
2022-08-26T11:36:28.072Z,37.75
2022-08-26T11:39:36.575Z,37.84
2022-08-26T11:43:03.000Z,37.41
2022-08-26T11:46:07.500Z,37.88
2022-08-26T11:49:12.996Z,37.39
2022-08-26T11:52:22.080Z,35.49
2022-08-26T11:55:24.902Z,35.26
2022-08-26T11:58:28.789Z,35.04
2022-08-26T12:01:35.730Z,35.84
2022-08-26T12:04:43.083Z,34.71
2022-08-26T12:07:50.848Z,34.52
2022-08-26T12:11:09.422Z,33.52
2022-08-26T12:14:27.656Z,32.72
2022-08-26T12:17:31.839Z,31.90
2022-08-26T12:20:48.229Z,29.89
2022-08-26T12:23:56.599Z,28.54
2022-08-26T12:27:11.169Z,28.19
2022-08-26T12:30:21.863Z,25.03
2022-08-26T12:33:26.082Z,25.75
2022-08-26T12:36:42.951Z,22.12
2022-08-26T12:39:48.052Z,20.69
2022-08-26T12:42:51.144Z,19.63
2022-08-26T12:46:02.241Z,16.72
2022-08-26T12:49:07.774Z,16.08
2022-08-26T12:52:31.490Z,14.75
2022-08-26T12:55:52.833Z,14.89
2022-08-26T12:59:21.773Z,12.74
2022-08-26T13:02:38.348Z,13.19
2022-08-26T13:05:40.852Z,11.17
2022-08-26T13:08:51.802Z,11.90
2022-08-26T13:11:54.292Z,12.28
2022-08-26T13:14:58.825Z,12.17
2022-08-26T13:18:02.382Z,11.44
2022-08-26T13:21:19.243Z,10.99
2022-08-26T13:24:38.161Z,13.03
2022-08-26T13:27:40.980Z,10.45
2022-08-26T13:30:47.833Z,9.47
2022-08-26T13:33:51.185Z,10.46
2022-08-26T13:36:56.276Z,10.27
2022-08-26T13:39:59.177Z,9.33
2022-08-26T13:43:01.903Z,9.06
2022-08-26T13:46:04.984Z,9.91
2022-08-26T13:49:08.084Z,9.31
2022-08-26T13:52:13.222Z,9.23
2022-08-26T13:55:17.049Z,8.35
2022-08-26T13:58:20.762Z,7.95
2022-08-26T14:01:23.744Z,8.91
2022-08-26T14:04:27.535Z,8.62
2022-08-26T14:07:30.169Z,8.75
2022-08-26T14:10:33.562Z,7.67
2022-08-26T14:13:36.511Z,9.05
2022-08-26T14:16:59.544Z,10.16
2022-08-26T14:20:04.943Z,11.00
2022-08-26T14:23:13.974Z,10.50
2022-08-26T14:26:28.658Z,12.35
2022-08-26T14:29:34.651Z,11.75
2022-08-26T14:32:40.652Z,14.30
2022-08-26T14:35:47.931Z,14.34
2022-08-26T14:38:53.663Z,15.40
2022-08-26T14:41:57.010Z,15.31
2022-08-26T14:45:02.985Z,14.82
2022-08-26T14:48:06.092Z,13.60
2022-08-26T14:51:08.766Z,14.40
2022-08-26T14:54:13.037Z,12.34
2022-08-26T14:57:16.047Z,11.41
2022-08-26T15:00:20.538Z,11.50
2022-08-26T15:03:23.086Z,10.16
2022-08-26T15:06:26.244Z,10.19
2022-08-26T15:09:31.820Z,9.57
2022-08-26T15:12:34.792Z,11.38
